sensor_id;sensor_type;location;lat;lon;timestamp;temperature;humidity
60723;DHT22;46574;52.818;6.516;2023-04-25T00:02:10;6.60;99.90
60723;DHT22;46574;52.818;6.516;2023-04-25T00:04:36;6.60;99.90
60723;DHT22;46574;52.818;6.516;2023-04-25T00:07:03;6.50;99.90
60723;DHT22;46574;52.818;6.516;2023-04-25T00:09:29;6.50;99.90
60723;DHT22;46574;52.818;6.516;2023-04-25T00:11:55;6.50;99.90
60723;DHT22;46574;52.818;6.516;2023-04-25T00:14:21;6.40;99.90
60723;DHT22;46574;52.818;6.516;2023-04-25T00:16:46;6.40;99.90
60723;DHT22;46574;52.818;6.516;2023-04-25T00:19:13;6.30;99.90
60723;DHT22;46574;52.818;6.516;2023-04-25T00:21:39;6.30;99.90
60723;DHT22;46574;52.818;6.516;2023-04-25T00:24:07;6.30;99.90
60723;DHT22;46574;52.818;6.516;2023-04-25T00:26:34;6.20;99.90
60723;DHT22;46574;52.818;6.516;2023-04-25T00:29:00;6.20;99.90
60723;DHT22;46574;52.818;6.516;2023-04-25T00:31:25;6.20;99.90
60723;DHT22;46574;52.818;6.516;2023-04-25T00:33:51;6.20;99.90
60723;DHT22;46574;52.818;6.516;2023-04-25T00:36:18;6.10;99.90
60723;DHT22;46574;52.818;6.516;2023-04-25T00:38:44;6.10;99.90
60723;DHT22;46574;52.818;6.516;2023-04-25T00:41:10;6.10;99.90
60723;DHT22;46574;52.818;6.516;2023-04-25T00:43:36;6.10;99.90
60723;DHT22;46574;52.818;6.516;2023-04-25T00:46:02;6.10;99.90
60723;DHT22;46574;52.818;6.516;2023-04-25T00:48:28;6.10;99.90
60723;DHT22;46574;52.818;6.516;2023-04-25T00:50:56;6.10;99.90
60723;DHT22;46574;52.818;6.516;2023-04-25T00:53:23;6.10;99.90
60723;DHT22;46574;52.818;6.516;2023-04-25T00:55:50;6.10;99.90
60723;DHT22;46574;52.818;6.516;2023-04-25T00:58:18;6.10;99.90
60723;DHT22;46574;52.818;6.516;2023-04-25T01:00:46;6.10;99.90
60723;DHT22;46574;52.818;6.516;2023-04-25T01:03:12;6.10;99.90
60723;DHT22;46574;52.818;6.516;2023-04-25T01:05:40;6.10;99.90
60723;DHT22;46574;52.818;6.516;2023-04-25T01:08:07;6.10;99.90
60723;DHT22;46574;52.818;6.516;2023-04-25T01:10:32;6.10;99.90
60723;DHT22;46574;52.818;6.516;2023-04-25T01:12:58;6.10;99.90
60723;DHT22;46574;52.818;6.516;2023-04-25T01:15:24;6.10;99.90
60723;DHT22;46574;52.818;6.516;2023-04-25T01:17:49;6.10;99.90
60723;DHT22;46574;52.818;6.516;2023-04-25T01:20:15;6.00;99.90
60723;DHT22;46574;52.818;6.516;2023-04-25T01:22:42;6.00;99.90
60723;DHT22;46574;52.818;6.516;2023-04-25T01:25:08;5.90;99.90
60723;DHT22;46574;52.818;6.516;2023-04-25T01:27:36;6.00;99.90
60723;DHT22;46574;52.818;6.516;2023-04-25T01:30:03;5.90;99.90
60723;DHT22;46574;52.818;6.516;2023-04-25T01:32:29;5.90;99.90
60723;DHT22;46574;52.818;6.516;2023-04-25T01:34:57;5.90;99.90
60723;DHT22;46574;52.818;6.516;2023-04-25T01:37:22;5.90;99.90
60723;DHT22;46574;52.818;6.516;2023-04-25T01:39:48;5.90;99.90
60723;DHT22;46574;52.818;6.516;2023-04-25T01:42:15;5.90;99.90
60723;DHT22;46574;52.818;6.516;2023-04-25T01:44:41;5.90;99.90
60723;DHT22;46574;52.818;6.516;2023-04-25T01:47:07;6.00;99.90
60723;DHT22;46574;52.818;6.516;2023-04-25T01:49:32;6.00;99.90
60723;DHT22;46574;52.818;6.516;2023-04-25T01:51:58;6.00;99.90
60723;DHT22;46574;52.818;6.516;2023-04-25T01:54:24;6.00;99.90
60723;DHT22;46574;52.818;6.516;2023-04-25T01:56:50;6.00;99.90
60723;DHT22;46574;52.818;6.516;2023-04-25T01:59:16;6.00;99.90
60723;DHT22;46574;52.818;6.516;2023-04-25T02:01:43;6.00;99.90
60723;DHT22;46574;52.818;6.516;2023-04-25T02:04:09;6.00;99.90
60723;DHT22;46574;52.818;6.516;2023-04-25T02:06:34;6.00;99.90
60723;DHT22;46574;52.818;6.516;2023-04-25T02:09:00;6.00;99.90
60723;DHT22;46574;52.818;6.516;2023-04-25T02:11:26;6.10;99.90
60723;DHT22;46574;52.818;6.516;2023-04-25T02:13:51;6.10;99.90
60723;DHT22;46574;52.818;6.516;2023-04-25T02:16:17;6.00;99.90
60723;DHT22;46574;52.818;6.516;2023-04-25T02:18:43;6.10;99.90
60723;DHT22;46574;52.818;6.516;2023-04-25T02:21:10;6.00;99.90
60723;DHT22;46574;52.818;6.516;2023-04-25T02:23:36;6.00;99.90
60723;DHT22;46574;52.818;6.516;2023-04-25T02:26:02;6.00;99.90
60723;DHT22;46574;52.818;6.516;2023-04-25T02:28:28;6.10;99.90
60723;DHT22;46574;52.818;6.516;2023-04-25T02:30:54;6.00;99.90
60723;DHT22;46574;52.818;6.516;2023-04-25T02:33:19;6.00;99.90
60723;DHT22;46574;52.818;6.516;2023-04-25T02:35:46;6.00;99.90
60723;DHT22;46574;52.818;6.516;2023-04-25T02:38:12;6.00;99.90
60723;DHT22;46574;52.818;6.516;2023-04-25T02:40:37;6.00;99.90
60723;DHT22;46574;52.818;6.516;2023-04-25T02:43:03;6.00;99.90
60723;DHT22;46574;52.818;6.516;2023-04-25T02:45:29;6.00;99.90
60723;DHT22;46574;52.818;6.516;2023-04-25T02:47:54;6.00;99.90
60723;DHT22;46574;52.818;6.516;2023-04-25T02:50:20;6.00;99.90
60723;DHT22;46574;52.818;6.516;2023-04-25T02:52:46;6.00;99.90
60723;DHT22;46574;52.818;6.516;2023-04-25T02:55:12;6.00;99.90
60723;DHT22;46574;52.818;6.516;2023-04-25T02:57:38;6.00;99.90
60723;DHT22;46574;52.818;6.516;2023-04-25T03:00:04;6.00;99.90
60723;DHT22;46574;52.818;6.516;2023-04-25T03:02:30;6.00;99.90
60723;DHT22;46574;52.818;6.516;2023-04-25T03:04:56;6.00;99.90
60723;DHT22;46574;52.818;6.516;2023-04-25T03:07:22;6.00;99.90
60723;DHT22;46574;52.818;6.516;2023-04-25T03:09:47;5.90;99.90
60723;DHT22;46574;52.818;6.516;2023-04-25T03:12:13;5.90;99.90
60723;DHT22;46574;52.818;6.516;2023-04-25T03:14:38;5.90;99.90
60723;DHT22;46574;52.818;6.516;2023-04-25T03:17:04;5.90;99.90
60723;DHT22;46574;52.818;6.516;2023-04-25T03:19:30;5.90;99.90
60723;DHT22;46574;52.818;6.516;2023-04-25T03:21:55;5.90;99.90
60723;DHT22;46574;52.818;6.516;2023-04-25T03:24:21;5.90;99.90
60723;DHT22;46574;52.818;6.516;2023-04-25T03:26:47;5.90;99.90
60723;DHT22;46574;52.818;6.516;2023-04-25T03:29:12;5.90;99.90
60723;DHT22;46574;52.818;6.516;2023-04-25T03:31:38;5.90;99.90
60723;DHT22;46574;52.818;6.516;2023-04-25T03:34:04;5.80;99.90
60723;DHT22;46574;52.818;6.516;2023-04-25T03:36:29;5.70;99.90
60723;DHT22;46574;52.818;6.516;2023-04-25T03:38:55;5.50;99.90
60723;DHT22;46574;52.818;6.516;2023-04-25T03:41:21;5.40;99.90
60723;DHT22;46574;52.818;6.516;2023-04-25T03:43:47;5.30;99.90
60723;DHT22;46574;52.818;6.516;2023-04-25T03:46:12;5.30;99.90
60723;DHT22;46574;52.818;6.516;2023-04-25T03:48:38;5.30;99.90
60723;DHT22;46574;52.818;6.516;2023-04-25T03:51:04;5.30;99.90
60723;DHT22;46574;52.818;6.516;2023-04-25T03:53:29;5.30;99.90
60723;DHT22;46574;52.818;6.516;2023-04-25T03:55:55;5.30;99.90
60723;DHT22;46574;52.818;6.516;2023-04-25T03:58:20;5.30;99.90
60723;DHT22;46574;52.818;6.516;2023-04-25T04:00:48;5.30;99.90
60723;DHT22;46574;52.818;6.516;2023-04-25T04:03:14;5.30;99.90
60723;DHT22;46574;52.818;6.516;2023-04-25T04:05:39;5.30;99.90
60723;DHT22;46574;52.818;6.516;2023-04-25T04:08:06;5.30;99.90
60723;DHT22;46574;52.818;6.516;2023-04-25T04:10:31;5.30;99.90
60723;DHT22;46574;52.818;6.516;2023-04-25T04:12:57;5.30;99.90
60723;DHT22;46574;52.818;6.516;2023-04-25T04:15:23;5.30;99.90
60723;DHT22;46574;52.818;6.516;2023-04-25T04:17:49;5.30;99.90
60723;DHT22;46574;52.818;6.516;2023-04-25T04:20:14;5.30;99.90
60723;DHT22;46574;52.818;6.516;2023-04-25T04:22:40;5.30;99.90
60723;DHT22;46574;52.818;6.516;2023-04-25T04:25:06;5.30;99.90
60723;DHT22;46574;52.818;6.516;2023-04-25T04:27:32;5.30;99.90
60723;DHT22;46574;52.818;6.516;2023-04-25T04:29:58;5.30;99.90
60723;DHT22;46574;52.818;6.516;2023-04-25T04:32:24;5.30;99.90
60723;DHT22;46574;52.818;6.516;2023-04-25T04:34:50;5.30;99.90
60723;DHT22;46574;52.818;6.516;2023-04-25T04:37:17;5.40;99.90
60723;DHT22;46574;52.818;6.516;2023-04-25T04:39:43;5.40;99.90
60723;DHT22;46574;52.818;6.516;2023-04-25T04:42:08;5.40;99.90
60723;DHT22;46574;52.818;6.516;2023-04-25T04:44:34;5.40;99.90
60723;DHT22;46574;52.818;6.516;2023-04-25T04:47:00;5.40;99.90
60723;DHT22;46574;52.818;6.516;2023-04-25T04:49:27;5.40;99.90
60723;DHT22;46574;52.818;6.516;2023-04-25T04:51:52;5.50;99.90
60723;DHT22;46574;52.818;6.516;2023-04-25T04:54:20;5.50;99.90
60723;DHT22;46574;52.818;6.516;2023-04-25T04:56:45;5.50;99.90
60723;DHT22;46574;52.818;6.516;2023-04-25T04:59:11;5.60;99.90
60723;DHT22;46574;52.818;6.516;2023-04-25T05:01:37;5.60;99.90
60723;DHT22;46574;52.818;6.516;2023-04-25T05:04:03;5.70;99.90
60723;DHT22;46574;52.818;6.516;2023-04-25T05:06:29;5.70;99.90
60723;DHT22;46574;52.818;6.516;2023-04-25T05:08:55;5.70;99.90
60723;DHT22;46574;52.818;6.516;2023-04-25T05:11:22;5.80;99.90
60723;DHT22;46574;52.818;6.516;2023-04-25T05:13:49;5.80;99.90
60723;DHT22;46574;52.818;6.516;2023-04-25T05:16:15;5.80;99.90
60723;DHT22;46574;52.818;6.516;2023-04-25T05:18:40;5.80;99.90
60723;DHT22;46574;52.818;6.516;2023-04-25T05:21:06;5.90;99.90
60723;DHT22;46574;52.818;6.516;2023-04-25T05:23:32;5.90;99.90
60723;DHT22;46574;52.818;6.516;2023-04-25T05:26:00;5.90;99.90
60723;DHT22;46574;52.818;6.516;2023-04-25T05:28:26;5.90;99.90
60723;DHT22;46574;52.818;6.516;2023-04-25T05:30:52;5.90;99.90
60723;DHT22;46574;52.818;6.516;2023-04-25T05:33:18;6.00;99.90
60723;DHT22;46574;52.818;6.516;2023-04-25T05:35:44;6.00;99.90
60723;DHT22;46574;52.818;6.516;2023-04-25T05:38:10;6.00;99.90
60723;DHT22;46574;52.818;6.516;2023-04-25T05:40:35;6.00;99.90
60723;DHT22;46574;52.818;6.516;2023-04-25T05:43:01;6.00;99.90
60723;DHT22;46574;52.818;6.516;2023-04-25T05:45:27;6.10;99.90
60723;DHT22;46574;52.818;6.516;2023-04-25T05:47:53;6.30;99.90
60723;DHT22;46574;52.818;6.516;2023-04-25T05:50:18;6.30;99.90
60723;DHT22;46574;52.818;6.516;2023-04-25T05:52:44;6.40;99.90
60723;DHT22;46574;52.818;6.516;2023-04-25T05:55:09;6.30;99.90
60723;DHT22;46574;52.818;6.516;2023-04-25T05:57:35;6.40;99.90
60723;DHT22;46574;52.818;6.516;2023-04-25T06:00:01;6.40;99.90
60723;DHT22;46574;52.818;6.516;2023-04-25T06:02:27;6.50;99.90
60723;DHT22;46574;52.818;6.516;2023-04-25T06:04:52;6.50;99.90
60723;DHT22;46574;52.818;6.516;2023-04-25T06:07:19;6.50;99.90
60723;DHT22;46574;52.818;6.516;2023-04-25T06:09:45;6.50;99.90
60723;DHT22;46574;52.818;6.516;2023-04-25T06:12:11;6.50;99.90
60723;DHT22;46574;52.818;6.516;2023-04-25T06:14:37;6.60;99.90
60723;DHT22;46574;52.818;6.516;2023-04-25T06:17:03;6.50;99.90
60723;DHT22;46574;52.818;6.516;2023-04-25T06:19:35;6.60;99.90
60723;DHT22;46574;52.818;6.516;2023-04-25T06:22:02;6.60;99.90
60723;DHT22;46574;52.818;6.516;2023-04-25T06:24:27;6.60;99.90
60723;DHT22;46574;52.818;6.516;2023-04-25T06:26:54;6.60;99.90
60723;DHT22;46574;52.818;6.516;2023-04-25T06:29:19;6.70;99.90
60723;DHT22;46574;52.818;6.516;2023-04-25T06:31:45;6.70;99.90
60723;DHT22;46574;52.818;6.516;2023-04-25T06:34:11;6.60;99.90
60723;DHT22;46574;52.818;6.516;2023-04-25T06:36:36;6.50;99.90
60723;DHT22;46574;52.818;6.516;2023-04-25T06:39:02;6.60;99.90
60723;DHT22;46574;52.818;6.516;2023-04-25T06:41:28;6.60;99.90
60723;DHT22;46574;52.818;6.516;2023-04-25T06:43:53;6.60;99.90
60723;DHT22;46574;52.818;6.516;2023-04-25T06:46:19;6.70;99.90
60723;DHT22;46574;52.818;6.516;2023-04-25T06:48:45;6.80;99.90
60723;DHT22;46574;52.818;6.516;2023-04-25T06:51:11;6.90;99.90
60723;DHT22;46574;52.818;6.516;2023-04-25T06:53:38;7.10;99.90
60723;DHT22;46574;52.818;6.516;2023-04-25T06:56:04;7.20;99.90
60723;DHT22;46574;52.818;6.516;2023-04-25T06:58:30;7.20;99.90
60723;DHT22;46574;52.818;6.516;2023-04-25T07:00:55;7.40;99.90
60723;DHT22;46574;52.818;6.516;2023-04-25T07:03:21;7.50;99.90
60723;DHT22;46574;52.818;6.516;2023-04-25T07:05:46;7.50;99.90
60723;DHT22;46574;52.818;6.516;2023-04-25T07:08:12;7.40;99.90
60723;DHT22;46574;52.818;6.516;2023-04-25T07:10:38;7.40;99.90
60723;DHT22;46574;52.818;6.516;2023-04-25T07:13:04;7.40;99.90
60723;DHT22;46574;52.818;6.516;2023-04-25T07:15:30;7.50;99.90
60723;DHT22;46574;52.818;6.516;2023-04-25T07:17:55;7.50;99.90
60723;DHT22;46574;52.818;6.516;2023-04-25T07:20:21;7.50;99.90
60723;DHT22;46574;52.818;6.516;2023-04-25T07:22:47;7.50;99.90
60723;DHT22;46574;52.818;6.516;2023-04-25T07:25:12;7.50;99.90
60723;DHT22;46574;52.818;6.516;2023-04-25T07:27:38;7.40;99.90
60723;DHT22;46574;52.818;6.516;2023-04-25T07:30:05;7.40;99.90
60723;DHT22;46574;52.818;6.516;2023-04-25T07:32:31;7.30;99.90
60723;DHT22;46574;52.818;6.516;2023-04-25T07:34:56;7.20;99.90
60723;DHT22;46574;52.818;6.516;2023-04-25T07:37:22;7.20;99.90
60723;DHT22;46574;52.818;6.516;2023-04-25T07:39:47;7.30;99.90
60723;DHT22;46574;52.818;6.516;2023-04-25T07:42:13;7.40;99.90
60723;DHT22;46574;52.818;6.516;2023-04-25T07:44:39;7.50;99.90
60723;DHT22;46574;52.818;6.516;2023-04-25T07:47:09;7.60;99.90
60723;DHT22;46574;52.818;6.516;2023-04-25T07:49:38;7.70;99.90
60723;DHT22;46574;52.818;6.516;2023-04-25T07:52:04;7.80;99.90
60723;DHT22;46574;52.818;6.516;2023-04-25T07:54:34;8.00;99.90
60723;DHT22;46574;52.818;6.516;2023-04-25T07:57:00;8.00;99.90
60723;DHT22;46574;52.818;6.516;2023-04-25T07:59:25;8.20;99.90
60723;DHT22;46574;52.818;6.516;2023-04-25T08:01:51;8.30;99.90
60723;DHT22;46574;52.818;6.516;2023-04-25T08:04:17;8.50;99.90
60723;DHT22;46574;52.818;6.516;2023-04-25T08:06:42;8.10;99.90
60723;DHT22;46574;52.818;6.516;2023-04-25T08:09:09;7.80;99.90
60723;DHT22;46574;52.818;6.516;2023-04-25T08:11:35;7.50;99.90
60723;DHT22;46574;52.818;6.516;2023-04-25T08:14:01;7.50;99.90
60723;DHT22;46574;52.818;6.516;2023-04-25T08:16:27;7.40;99.90
60723;DHT22;46574;52.818;6.516;2023-04-25T08:18:53;7.40;99.90
60723;DHT22;46574;52.818;6.516;2023-04-25T08:21:19;7.70;99.90
60723;DHT22;46574;52.818;6.516;2023-04-25T08:23:45;7.90;99.90
60723;DHT22;46574;52.818;6.516;2023-04-25T08:26:11;8.00;99.90
60723;DHT22;46574;52.818;6.516;2023-04-25T08:28:36;8.10;99.90
60723;DHT22;46574;52.818;6.516;2023-04-25T08:31:02;8.20;99.90
60723;DHT22;46574;52.818;6.516;2023-04-25T08:33:28;8.50;99.90
60723;DHT22;46574;52.818;6.516;2023-04-25T08:35:54;8.60;99.90
60723;DHT22;46574;52.818;6.516;2023-04-25T08:38:19;8.30;99.90
60723;DHT22;46574;52.818;6.516;2023-04-25T08:40:49;8.10;99.90
60723;DHT22;46574;52.818;6.516;2023-04-25T08:43:18;8.10;99.90
60723;DHT22;46574;52.818;6.516;2023-04-25T08:45:44;8.10;99.90
60723;DHT22;46574;52.818;6.516;2023-04-25T08:48:14;7.80;99.90
60723;DHT22;46574;52.818;6.516;2023-04-25T08:50:52;7.70;99.90
60723;DHT22;46574;52.818;6.516;2023-04-25T08:53:22;8.00;99.90
60723;DHT22;46574;52.818;6.516;2023-04-25T08:55:50;8.30;99.90
60723;DHT22;46574;52.818;6.516;2023-04-25T08:58:18;8.60;99.90
60723;DHT22;46574;52.818;6.516;2023-04-25T09:00:47;8.70;99.90
60723;DHT22;46574;52.818;6.516;2023-04-25T09:03:13;8.80;99.90
60723;DHT22;46574;52.818;6.516;2023-04-25T09:05:40;9.00;99.90
60723;DHT22;46574;52.818;6.516;2023-04-25T09:08:06;9.20;99.90
60723;DHT22;46574;52.818;6.516;2023-04-25T09:10:32;9.30;99.90
60723;DHT22;46574;52.818;6.516;2023-04-25T09:13:08;9.50;99.90
60723;DHT22;46574;52.818;6.516;2023-04-25T09:15:48;9.70;99.90
60723;DHT22;46574;52.818;6.516;2023-04-25T09:18:31;9.80;99.90
60723;DHT22;46574;52.818;6.516;2023-04-25T09:21:09;9.60;99.90
60723;DHT22;46574;52.818;6.516;2023-04-25T09:23:47;9.40;99.90
60723;DHT22;46574;52.818;6.516;2023-04-25T09:26:17;8.30;99.90
60723;DHT22;46574;52.818;6.516;2023-04-25T09:28:44;7.50;99.90
60723;DHT22;46574;52.818;6.516;2023-04-25T09:31:11;7.40;99.90
60723;DHT22;46574;52.818;6.516;2023-04-25T09:33:37;7.30;99.90
60723;DHT22;46574;52.818;6.516;2023-04-25T09:36:04;7.00;99.90
60723;DHT22;46574;52.818;6.516;2023-04-25T09:38:31;6.90;99.90
60723;DHT22;46574;52.818;6.516;2023-04-25T09:40:57;7.00;99.90
60723;DHT22;46574;52.818;6.516;2023-04-25T09:43:24;7.00;99.90
60723;DHT22;46574;52.818;6.516;2023-04-25T09:45:52;7.10;99.90
60723;DHT22;46574;52.818;6.516;2023-04-25T09:48:19;7.40;99.90
60723;DHT22;46574;52.818;6.516;2023-04-25T09:51:03;7.90;99.90
60723;DHT22;46574;52.818;6.516;2023-04-25T09:53:29;8.20;99.90
60723;DHT22;46574;52.818;6.516;2023-04-25T09:55:56;8.50;99.90
60723;DHT22;46574;52.818;6.516;2023-04-25T09:58:24;9.10;99.90
60723;DHT22;46574;52.818;6.516;2023-04-25T10:00:51;9.20;99.90
60723;DHT22;46574;52.818;6.516;2023-04-25T10:03:20;8.90;99.90
60723;DHT22;46574;52.818;6.516;2023-04-25T10:05:48;8.50;99.90
60723;DHT22;46574;52.818;6.516;2023-04-25T10:08:15;8.50;99.90
60723;DHT22;46574;52.818;6.516;2023-04-25T10:10:42;8.40;99.90
60723;DHT22;46574;52.818;6.516;2023-04-25T10:13:08;8.10;99.90
60723;DHT22;46574;52.818;6.516;2023-04-25T10:15:35;7.80;99.90
60723;DHT22;46574;52.818;6.516;2023-04-25T10:18:02;7.60;99.90
60723;DHT22;46574;52.818;6.516;2023-04-25T10:20:29;7.50;99.90
60723;DHT22;46574;52.818;6.516;2023-04-25T10:23:02;7.20;99.90
60723;DHT22;46574;52.818;6.516;2023-04-25T10:25:29;7.30;99.90
60723;DHT22;46574;52.818;6.516;2023-04-25T10:27:55;7.30;99.90
60723;DHT22;46574;52.818;6.516;2023-04-25T10:30:21;7.20;99.90
60723;DHT22;46574;52.818;6.516;2023-04-25T10:32:46;7.60;99.90
60723;DHT22;46574;52.818;6.516;2023-04-25T10:35:25;8.20;99.90
60723;DHT22;46574;52.818;6.516;2023-04-25T10:40:23;9.00;99.90
60723;DHT22;46574;52.818;6.516;2023-04-25T10:42:52;9.20;99.90
60723;DHT22;46574;52.818;6.516;2023-04-25T10:45:22;9.30;99.90
60723;DHT22;46574;52.818;6.516;2023-04-25T10:47:47;9.10;99.90
60723;DHT22;46574;52.818;6.516;2023-04-25T10:50:17;8.60;99.90
60723;DHT22;46574;52.818;6.516;2023-04-25T10:52:43;8.40;99.90
60723;DHT22;46574;52.818;6.516;2023-04-25T10:55:09;8.40;99.90
60723;DHT22;46574;52.818;6.516;2023-04-25T10:57:45;8.50;99.90
60723;DHT22;46574;52.818;6.516;2023-04-25T11:00:20;8.60;99.90
60723;DHT22;46574;52.818;6.516;2023-04-25T11:02:53;8.90;99.90
60723;DHT22;46574;52.818;6.516;2023-04-25T11:05:40;9.20;99.90
60723;DHT22;46574;52.818;6.516;2023-04-25T11:08:11;9.50;99.90
60723;DHT22;46574;52.818;6.516;2023-04-25T11:10:37;9.40;99.90
60723;DHT22;46574;52.818;6.516;2023-04-25T11:13:05;9.60;99.90
60723;DHT22;46574;52.818;6.516;2023-04-25T11:15:31;9.40;99.90
60723;DHT22;46574;52.818;6.516;2023-04-25T11:17:56;9.30;99.90
60723;DHT22;46574;52.818;6.516;2023-04-25T11:20:25;9.60;99.90
60723;DHT22;46574;52.818;6.516;2023-04-25T11:22:51;9.90;99.90
60723;DHT22;46574;52.818;6.516;2023-04-25T11:25:17;10.20;99.90
60723;DHT22;46574;52.818;6.516;2023-04-25T11:27:58;10.40;99.90
60723;DHT22;46574;52.818;6.516;2023-04-25T11:30:26;10.20;99.90
60723;DHT22;46574;52.818;6.516;2023-04-25T11:32:52;10.30;99.90
60723;DHT22;46574;52.818;6.516;2023-04-25T11:35:21;10.40;99.90
60723;DHT22;46574;52.818;6.516;2023-04-25T11:37:48;10.60;99.90
60723;DHT22;46574;52.818;6.516;2023-04-25T11:40:15;10.30;99.90
60723;DHT22;46574;52.818;6.516;2023-04-25T11:42:45;9.80;99.90
60723;DHT22;46574;52.818;6.516;2023-04-25T11:45:11;9.50;99.90
60723;DHT22;46574;52.818;6.516;2023-04-25T11:47:37;9.30;99.90
60723;DHT22;46574;52.818;6.516;2023-04-25T11:50:05;9.10;99.90
60723;DHT22;46574;52.818;6.516;2023-04-25T11:52:41;9.00;99.90
60723;DHT22;46574;52.818;6.516;2023-04-25T11:55:18;8.80;99.90
60723;DHT22;46574;52.818;6.516;2023-04-25T11:57:48;8.60;99.90
60723;DHT22;46574;52.818;6.516;2023-04-25T12:00:20;8.70;99.90
60723;DHT22;46574;52.818;6.516;2023-04-25T12:02:47;8.50;99.90
60723;DHT22;46574;52.818;6.516;2023-04-25T12:05:14;8.60;99.90
60723;DHT22;46574;52.818;6.516;2023-04-25T12:07:43;9.20;99.90
60723;DHT22;46574;52.818;6.516;2023-04-25T12:10:11;9.20;99.90
60723;DHT22;46574;52.818;6.516;2023-04-25T12:12:38;8.90;99.90
60723;DHT22;46574;52.818;6.516;2023-04-25T12:17:35;8.90;99.90
60723;DHT22;46574;52.818;6.516;2023-04-25T12:20:11;9.00;99.90
60723;DHT22;46574;52.818;6.516;2023-04-25T12:22:38;9.10;99.90
60723;DHT22;46574;52.818;6.516;2023-04-25T12:25:06;9.00;99.90
60723;DHT22;46574;52.818;6.516;2023-04-25T12:27:32;8.90;99.90
60723;DHT22;46574;52.818;6.516;2023-04-25T12:29:59;9.00;99.90
60723;DHT22;46574;52.818;6.516;2023-04-25T12:32:24;9.20;99.90
60723;DHT22;46574;52.818;6.516;2023-04-25T12:34:51;9.40;99.90
60723;DHT22;46574;52.818;6.516;2023-04-25T12:37:17;9.30;99.90
60723;DHT22;46574;52.818;6.516;2023-04-25T12:39:43;9.40;99.90
60723;DHT22;46574;52.818;6.516;2023-04-25T12:42:09;9.70;99.90
60723;DHT22;46574;52.818;6.516;2023-04-25T12:44:37;10.10;99.90
60723;DHT22;46574;52.818;6.516;2023-04-25T12:47:03;10.30;99.90
60723;DHT22;46574;52.818;6.516;2023-04-25T12:49:29;9.50;99.90
60723;DHT22;46574;52.818;6.516;2023-04-25T12:51:55;8.90;99.90
60723;DHT22;46574;52.818;6.516;2023-04-25T12:54:20;8.50;99.90
60723;DHT22;46574;52.818;6.516;2023-04-25T12:56:46;8.20;99.90
60723;DHT22;46574;52.818;6.516;2023-04-25T12:59:12;8.10;99.90
60723;DHT22;46574;52.818;6.516;2023-04-25T13:01:38;8.30;99.90
60723;DHT22;46574;52.818;6.516;2023-04-25T13:04:04;8.90;99.90
60723;DHT22;46574;52.818;6.516;2023-04-25T13:06:29;9.20;99.90
60723;DHT22;46574;52.818;6.516;2023-04-25T13:08:56;9.20;99.90
60723;DHT22;46574;52.818;6.516;2023-04-25T13:11:22;8.50;99.90
60723;DHT22;46574;52.818;6.516;2023-04-25T13:13:47;8.20;99.90
60723;DHT22;46574;52.818;6.516;2023-04-25T13:16:13;8.10;99.90
60723;DHT22;46574;52.818;6.516;2023-04-25T13:18:41;7.90;99.90
60723;DHT22;46574;52.818;6.516;2023-04-25T13:21:09;7.90;99.90
60723;DHT22;46574;52.818;6.516;2023-04-25T13:23:36;7.90;99.90
60723;DHT22;46574;52.818;6.516;2023-04-25T13:26:01;8.00;99.90
60723;DHT22;46574;52.818;6.516;2023-04-25T13:28:27;8.20;99.90
60723;DHT22;46574;52.818;6.516;2023-04-25T13:30:53;8.40;99.90
60723;DHT22;46574;52.818;6.516;2023-04-25T13:33:20;8.80;99.90
60723;DHT22;46574;52.818;6.516;2023-04-25T13:35:47;9.30;99.90
60723;DHT22;46574;52.818;6.516;2023-04-25T13:38:20;9.90;99.90
60723;DHT22;46574;52.818;6.516;2023-04-25T13:40:46;10.20;99.90
60723;DHT22;46574;52.818;6.516;2023-04-25T13:43:11;10.20;99.90
60723;DHT22;46574;52.818;6.516;2023-04-25T13:45:37;9.70;99.90
60723;DHT22;46574;52.818;6.516;2023-04-25T13:48:03;9.60;99.90
60723;DHT22;46574;52.818;6.516;2023-04-25T13:50:28;9.50;99.90
60723;DHT22;46574;52.818;6.516;2023-04-25T13:52:54;9.60;99.90
60723;DHT22;46574;52.818;6.516;2023-04-25T13:55:20;9.80;99.90
60723;DHT22;46574;52.818;6.516;2023-04-25T13:57:45;10.10;99.90
60723;DHT22;46574;52.818;6.516;2023-04-25T14:00:12;10.40;99.90
60723;DHT22;46574;52.818;6.516;2023-04-25T14:02:38;10.50;99.90
60723;DHT22;46574;52.818;6.516;2023-04-25T14:05:04;10.70;99.90
60723;DHT22;46574;52.818;6.516;2023-04-25T14:07:30;10.60;99.90
60723;DHT22;46574;52.818;6.516;2023-04-25T14:09:56;10.20;99.90
60723;DHT22;46574;52.818;6.516;2023-04-25T14:12:25;9.90;99.90
60723;DHT22;46574;52.818;6.516;2023-04-25T14:14:51;9.60;99.90
60723;DHT22;46574;52.818;6.516;2023-04-25T14:17:18;9.50;99.90
60723;DHT22;46574;52.818;6.516;2023-04-25T14:19:44;9.30;99.90
60723;DHT22;46574;52.818;6.516;2023-04-25T14:22:11;9.30;99.90
60723;DHT22;46574;52.818;6.516;2023-04-25T14:24:37;9.20;99.90
60723;DHT22;46574;52.818;6.516;2023-04-25T14:27:03;9.40;99.90
60723;DHT22;46574;52.818;6.516;2023-04-25T14:29:29;9.90;99.90
60723;DHT22;46574;52.818;6.516;2023-04-25T14:31:55;10.30;99.90
60723;DHT22;46574;52.818;6.516;2023-04-25T14:34:23;10.40;99.90
60723;DHT22;46574;52.818;6.516;2023-04-25T14:36:48;9.80;99.90
60723;DHT22;46574;52.818;6.516;2023-04-25T14:39:14;9.20;99.90
60723;DHT22;46574;52.818;6.516;2023-04-25T14:41:40;8.90;99.90
60723;DHT22;46574;52.818;6.516;2023-04-25T14:44:05;8.70;99.90
60723;DHT22;46574;52.818;6.516;2023-04-25T14:46:31;8.60;99.90
60723;DHT22;46574;52.818;6.516;2023-04-25T14:48:57;8.40;99.90
60723;DHT22;46574;52.818;6.516;2023-04-25T14:51:23;8.50;99.90
60723;DHT22;46574;52.818;6.516;2023-04-25T14:53:48;8.70;99.90
60723;DHT22;46574;52.818;6.516;2023-04-25T14:56:14;8.90;99.90
60723;DHT22;46574;52.818;6.516;2023-04-25T14:58:40;9.10;99.90
60723;DHT22;46574;52.818;6.516;2023-04-25T15:01:06;9.10;99.90
60723;DHT22;46574;52.818;6.516;2023-04-25T15:03:32;9.20;99.90
60723;DHT22;46574;52.818;6.516;2023-04-25T15:05:58;9.30;99.90
60723;DHT22;46574;52.818;6.516;2023-04-25T15:08:23;9.40;99.90
60723;DHT22;46574;52.818;6.516;2023-04-25T15:10:49;9.90;99.90
60723;DHT22;46574;52.818;6.516;2023-04-25T15:13:17;10.40;99.90
60723;DHT22;46574;52.818;6.516;2023-04-25T15:15:43;10.70;99.90
60723;DHT22;46574;52.818;6.516;2023-04-25T15:18:08;10.70;99.90
60723;DHT22;46574;52.818;6.516;2023-04-25T15:20:34;10.40;99.90
60723;DHT22;46574;52.818;6.516;2023-04-25T15:23:00;10.00;99.90
60723;DHT22;46574;52.818;6.516;2023-04-25T15:25:28;9.60;99.90
60723;DHT22;46574;52.818;6.516;2023-04-25T15:27:54;9.50;99.90
60723;DHT22;46574;52.818;6.516;2023-04-25T15:30:20;9.40;99.90
60723;DHT22;46574;52.818;6.516;2023-04-25T15:32:46;9.40;99.90
60723;DHT22;46574;52.818;6.516;2023-04-25T15:35:13;9.30;99.90
60723;DHT22;46574;52.818;6.516;2023-04-25T15:37:38;9.20;99.90
60723;DHT22;46574;52.818;6.516;2023-04-25T15:40:14;9.00;99.90
60723;DHT22;46574;52.818;6.516;2023-04-25T15:42:48;8.90;99.90
60723;DHT22;46574;52.818;6.516;2023-04-25T15:45:19;8.70;99.90
60723;DHT22;46574;52.818;6.516;2023-04-25T15:47:46;8.50;99.90